sensor_id;sensor_type;location;lat;lon;timestamp;P1;durP1;ratioP1;P2;durP2;ratioP2
57989;SDS011;58373;51.824;5.564;2022-07-19T00:01:36;10.77;;;8.52;;
57989;SDS011;58373;51.824;5.564;2022-07-19T00:04:02;12.07;;;8.75;;
57989;SDS011;58373;51.824;5.564;2022-07-19T00:06:27;12.38;;;8.57;;
57989;SDS011;58373;51.824;5.564;2022-07-19T00:08:53;10.98;;;8.40;;
57989;SDS011;58373;51.824;5.564;2022-07-19T00:11:18;10.95;;;8.25;;
57989;SDS011;58373;51.824;5.564;2022-07-19T00:13:44;10.25;;;8.57;;
57989;SDS011;58373;51.824;5.564;2022-07-19T00:16:09;12.73;;;8.75;;
57989;SDS011;58373;51.824;5.564;2022-07-19T00:18:34;11.32;;;8.77;;
57989;SDS011;58373;51.824;5.564;2022-07-19T00:21:00;12.77;;;9.00;;
57989;SDS011;58373;51.824;5.564;2022-07-19T00:23:25;12.35;;;8.27;;
57989;SDS011;58373;51.824;5.564;2022-07-19T00:25:50;12.63;;;8.70;;
57989;SDS011;58373;51.824;5.564;2022-07-19T00:28:16;13.23;;;8.07;;
57989;SDS011;58373;51.824;5.564;2022-07-19T00:30:41;12.48;;;8.32;;
57989;SDS011;58373;51.824;5.564;2022-07-19T00:33:06;12.23;;;8.90;;
57989;SDS011;58373;51.824;5.564;2022-07-19T00:38:13;12.10;;;8.20;;
57989;SDS011;58373;51.824;5.564;2022-07-19T00:40:40;11.27;;;8.32;;
57989;SDS011;58373;51.824;5.564;2022-07-19T00:43:07;10.77;;;7.88;;
57989;SDS011;58373;51.824;5.564;2022-07-19T00:45:33;11.57;;;8.00;;
57989;SDS011;58373;51.824;5.564;2022-07-19T00:47:59;8.65;;;7.55;;
57989;SDS011;58373;51.824;5.564;2022-07-19T00:50:25;9.35;;;7.43;;
57989;SDS011;58373;51.824;5.564;2022-07-19T00:52:52;11.00;;;7.53;;
57989;SDS011;58373;51.824;5.564;2022-07-19T00:55:21;9.77;;;7.88;;
57989;SDS011;58373;51.824;5.564;2022-07-19T00:57:47;11.25;;;7.65;;
57989;SDS011;58373;51.824;5.564;2022-07-19T01:00:13;10.85;;;7.60;;
57989;SDS011;58373;51.824;5.564;2022-07-19T01:02:40;11.82;;;8.07;;
57989;SDS011;58373;51.824;5.564;2022-07-19T01:05:06;9.93;;;7.47;;
57989;SDS011;58373;51.824;5.564;2022-07-19T01:07:32;11.52;;;7.78;;
57989;SDS011;58373;51.824;5.564;2022-07-19T01:10:00;11.20;;;8.20;;
57989;SDS011;58373;51.824;5.564;2022-07-19T01:15:29;12.45;;;7.95;;
57989;SDS011;58373;51.824;5.564;2022-07-19T01:17:57;9.55;;;8.05;;
57989;SDS011;58373;51.824;5.564;2022-07-19T01:20:24;10.63;;;8.30;;
57989;SDS011;58373;51.824;5.564;2022-07-19T01:22:52;12.98;;;8.30;;
57989;SDS011;58373;51.824;5.564;2022-07-19T01:25:17;10.77;;;8.40;;
57989;SDS011;58373;51.824;5.564;2022-07-19T01:27:44;11.00;;;7.97;;
57989;SDS011;58373;51.824;5.564;2022-07-19T01:30:33;9.57;;;7.55;;
57989;SDS011;58373;51.824;5.564;2022-07-19T01:33:03;8.95;;;7.75;;
57989;SDS011;58373;51.824;5.564;2022-07-19T01:35:39;9.85;;;8.00;;
57989;SDS011;58373;51.824;5.564;2022-07-19T01:38:07;9.20;;;7.60;;
57989;SDS011;58373;51.824;5.564;2022-07-19T01:40:32;10.60;;;7.90;;
57989;SDS011;58373;51.824;5.564;2022-07-19T01:42:58;8.90;;;7.95;;
57989;SDS011;58373;51.824;5.564;2022-07-19T01:45:25;12.05;;;7.65;;
57989;SDS011;58373;51.824;5.564;2022-07-19T01:47:51;11.40;;;7.88;;
57989;SDS011;58373;51.824;5.564;2022-07-19T01:50:17;11.68;;;8.40;;
57989;SDS011;58373;51.824;5.564;2022-07-19T01:52:43;11.13;;;8.20;;
57989;SDS011;58373;51.824;5.564;2022-07-19T01:55:09;9.55;;;8.27;;
57989;SDS011;58373;51.824;5.564;2022-07-19T01:57:35;9.73;;;8.23;;
57989;SDS011;58373;51.824;5.564;2022-07-19T02:00:00;12.07;;;8.30;;
57989;SDS011;58373;51.824;5.564;2022-07-19T02:02:27;11.82;;;8.35;;
57989;SDS011;58373;51.824;5.564;2022-07-19T02:04:52;11.05;;;8.30;;
57989;SDS011;58373;51.824;5.564;2022-07-19T02:07:17;9.30;;;8.10;;
57989;SDS011;58373;51.824;5.564;2022-07-19T02:09:43;12.10;;;7.95;;
57989;SDS011;58373;51.824;5.564;2022-07-19T02:12:08;11.65;;;8.55;;
57989;SDS011;58373;51.824;5.564;2022-07-19T02:14:34;10.65;;;8.40;;
57989;SDS011;58373;51.824;5.564;2022-07-19T02:16:59;11.02;;;9.00;;
57989;SDS011;58373;51.824;5.564;2022-07-19T02:19:25;12.18;;;8.73;;
57989;SDS011;58373;51.824;5.564;2022-07-19T02:21:50;11.73;;;8.70;;
57989;SDS011;58373;51.824;5.564;2022-07-19T02:24:15;11.15;;;8.15;;
57989;SDS011;58373;51.824;5.564;2022-07-19T02:26:41;10.40;;;8.77;;
57989;SDS011;58373;51.824;5.564;2022-07-19T02:29:07;11.68;;;8.90;;
57989;SDS011;58373;51.824;5.564;2022-07-19T02:31:33;11.43;;;9.05;;
57989;SDS011;58373;51.824;5.564;2022-07-19T02:33:59;12.02;;;8.93;;
57989;SDS011;58373;51.824;5.564;2022-07-19T02:36:24;11.73;;;8.48;;
57989;SDS011;58373;51.824;5.564;2022-07-19T02:38:50;11.63;;;8.88;;
57989;SDS011;58373;51.824;5.564;2022-07-19T02:41:16;11.10;;;8.73;;
57989;SDS011;58373;51.824;5.564;2022-07-19T02:43:42;9.80;;;8.80;;
57989;SDS011;58373;51.824;5.564;2022-07-19T02:46:08;10.40;;;8.95;;
57989;SDS011;58373;51.824;5.564;2022-07-19T02:48:33;11.18;;;8.55;;
57989;SDS011;58373;51.824;5.564;2022-07-19T02:51:02;11.07;;;9.10;;
57989;SDS011;58373;51.824;5.564;2022-07-19T02:53:28;9.63;;;8.63;;
57989;SDS011;58373;51.824;5.564;2022-07-19T02:55:53;8.85;;;7.95;;
57989;SDS011;58373;51.824;5.564;2022-07-19T02:58:19;10.52;;;8.82;;
57989;SDS011;58373;51.824;5.564;2022-07-19T03:00:44;11.65;;;9.30;;
57989;SDS011;58373;51.824;5.564;2022-07-19T03:03:09;9.60;;;8.57;;
57989;SDS011;58373;51.824;5.564;2022-07-19T03:05:53;9.95;;;8.93;;
57989;SDS011;58373;51.824;5.564;2022-07-19T03:08:20;10.43;;;8.90;;
57989;SDS011;58373;51.824;5.564;2022-07-19T03:10:45;9.93;;;8.90;;
57989;SDS011;58373;51.824;5.564;2022-07-19T03:13:10;10.88;;;8.73;;
57989;SDS011;58373;51.824;5.564;2022-07-19T03:15:36;10.20;;;9.13;;
57989;SDS011;58373;51.824;5.564;2022-07-19T03:18:02;12.40;;;9.27;;
57989;SDS011;58373;51.824;5.564;2022-07-19T03:20:28;10.30;;;9.18;;
57989;SDS011;58373;51.824;5.564;2022-07-19T03:22:55;10.10;;;8.98;;
57989;SDS011;58373;51.824;5.564;2022-07-19T03:25:21;11.30;;;9.85;;
57989;SDS011;58373;51.824;5.564;2022-07-19T03:27:47;12.27;;;9.55;;
57989;SDS011;58373;51.824;5.564;2022-07-19T03:30:13;11.65;;;9.57;;
57989;SDS011;58373;51.824;5.564;2022-07-19T03:32:39;10.63;;;9.43;;
57989;SDS011;58373;51.824;5.564;2022-07-19T03:35:04;11.32;;;9.18;;
57989;SDS011;58373;51.824;5.564;2022-07-19T03:37:30;10.90;;;9.80;;
57989;SDS011;58373;51.824;5.564;2022-07-19T03:39:55;11.30;;;9.80;;
57989;SDS011;58373;51.824;5.564;2022-07-19T03:42:21;11.85;;;9.70;;
57989;SDS011;58373;51.824;5.564;2022-07-19T03:44:46;11.77;;;9.57;;
57989;SDS011;58373;51.824;5.564;2022-07-19T03:47:11;11.82;;;10.63;;
57989;SDS011;58373;51.824;5.564;2022-07-19T03:49:37;12.23;;;10.55;;
57989;SDS011;58373;51.824;5.564;2022-07-19T03:52:02;11.73;;;10.52;;
57989;SDS011;58373;51.824;5.564;2022-07-19T03:54:28;12.20;;;11.00;;
57989;SDS011;58373;51.824;5.564;2022-07-19T03:56:53;13.38;;;11.18;;
57989;SDS011;58373;51.824;5.564;2022-07-19T03:59:20;13.50;;;11.73;;
57989;SDS011;58373;51.824;5.564;2022-07-19T04:01:47;11.52;;;10.43;;
57989;SDS011;58373;51.824;5.564;2022-07-19T04:04:13;12.43;;;11.05;;
57989;SDS011;58373;51.824;5.564;2022-07-19T04:06:38;11.63;;;10.48;;
57989;SDS011;58373;51.824;5.564;2022-07-19T04:09:04;12.43;;;10.55;;
57989;SDS011;58373;51.824;5.564;2022-07-19T04:11:29;11.48;;;10.25;;
57989;SDS011;58373;51.824;5.564;2022-07-19T04:13:54;11.30;;;10.15;;
57989;SDS011;58373;51.824;5.564;2022-07-19T04:16:20;12.00;;;10.60;;
57989;SDS011;58373;51.824;5.564;2022-07-19T04:18:45;12.13;;;10.60;;
57989;SDS011;58373;51.824;5.564;2022-07-19T04:21:10;11.48;;;10.25;;
57989;SDS011;58373;51.824;5.564;2022-07-19T04:23:36;12.07;;;9.98;;
57989;SDS011;58373;51.824;5.564;2022-07-19T04:26:01;11.07;;;9.80;;
57989;SDS011;58373;51.824;5.564;2022-07-19T04:28:26;12.07;;;10.13;;
57989;SDS011;58373;51.824;5.564;2022-07-19T04:30:52;11.25;;;10.05;;
57989;SDS011;58373;51.824;5.564;2022-07-19T04:33:17;10.90;;;9.57;;
57989;SDS011;58373;51.824;5.564;2022-07-19T04:35:44;12.20;;;10.07;;
57989;SDS011;58373;51.824;5.564;2022-07-19T04:38:10;11.52;;;10.00;;
57989;SDS011;58373;51.824;5.564;2022-07-19T04:40:36;14.57;;;9.82;;
57989;SDS011;58373;51.824;5.564;2022-07-19T04:43:01;11.45;;;10.25;;
57989;SDS011;58373;51.824;5.564;2022-07-19T04:45:27;11.25;;;9.75;;
57989;SDS011;58373;51.824;5.564;2022-07-19T04:47:53;10.90;;;9.77;;
57989;SDS011;58373;51.824;5.564;2022-07-19T04:50:18;13.10;;;10.32;;
57989;SDS011;58373;51.824;5.564;2022-07-19T04:52:43;12.85;;;10.35;;
57989;SDS011;58373;51.824;5.564;2022-07-19T04:55:09;11.88;;;10.68;;
57989;SDS011;58373;51.824;5.564;2022-07-19T04:57:34;11.70;;;10.30;;
57989;SDS011;58373;51.824;5.564;2022-07-19T05:00:00;12.05;;;10.95;;
57989;SDS011;58373;51.824;5.564;2022-07-19T05:02:25;12.95;;;10.63;;
57989;SDS011;58373;51.824;5.564;2022-07-19T05:04:51;11.40;;;10.30;;
57989;SDS011;58373;51.824;5.564;2022-07-19T05:07:16;11.63;;;10.52;;
57989;SDS011;58373;51.824;5.564;2022-07-19T05:09:42;12.00;;;10.80;;
57989;SDS011;58373;51.824;5.564;2022-07-19T05:12:07;15.32;;;10.48;;
57989;SDS011;58373;51.824;5.564;2022-07-19T05:14:34;12.13;;;10.93;;
57989;SDS011;58373;51.824;5.564;2022-07-19T05:16:59;16.83;;;11.00;;
57989;SDS011;58373;51.824;5.564;2022-07-19T05:19:25;12.05;;;10.50;;
57989;SDS011;58373;51.824;5.564;2022-07-19T05:21:50;12.93;;;10.43;;
57989;SDS011;58373;51.824;5.564;2022-07-19T05:24:16;12.20;;;10.77;;
57989;SDS011;58373;51.824;5.564;2022-07-19T05:26:41;12.32;;;10.93;;
57989;SDS011;58373;51.824;5.564;2022-07-19T05:29:07;12.05;;;10.85;;
57989;SDS011;58373;51.824;5.564;2022-07-19T05:31:32;13.38;;;10.52;;
57989;SDS011;58373;51.824;5.564;2022-07-19T05:33:58;11.95;;;10.43;;
57989;SDS011;58373;51.824;5.564;2022-07-19T05:36:23;12.02;;;10.40;;
57989;SDS011;58373;51.824;5.564;2022-07-19T05:38:48;13.20;;;10.00;;
57989;SDS011;58373;51.824;5.564;2022-07-19T05:41:14;12.75;;;10.32;;
57989;SDS011;58373;51.824;5.564;2022-07-19T05:43:41;14.65;;;10.32;;
57989;SDS011;58373;51.824;5.564;2022-07-19T05:46:06;12.18;;;10.35;;
57989;SDS011;58373;51.824;5.564;2022-07-19T05:48:32;13.43;;;10.65;;
57989;SDS011;58373;51.824;5.564;2022-07-19T05:50:57;11.30;;;10.10;;
57989;SDS011;58373;51.824;5.564;2022-07-19T05:53:24;13.45;;;10.20;;
57989;SDS011;58373;51.824;5.564;2022-07-19T05:55:50;14.45;;;10.10;;
57989;SDS011;58373;51.824;5.564;2022-07-19T05:58:15;13.50;;;10.82;;
57989;SDS011;58373;51.824;5.564;2022-07-19T06:00:43;11.97;;;9.77;;
57989;SDS011;58373;51.824;5.564;2022-07-19T06:03:29;13.98;;;10.70;;
57989;SDS011;58373;51.824;5.564;2022-07-19T06:05:54;11.82;;;9.82;;
57989;SDS011;58373;51.824;5.564;2022-07-19T06:08:19;14.07;;;10.57;;
57989;SDS011;58373;51.824;5.564;2022-07-19T06:10:45;14.05;;;10.57;;
57989;SDS011;58373;51.824;5.564;2022-07-19T06:13:10;11.80;;;10.13;;
57989;SDS011;58373;51.824;5.564;2022-07-19T06:15:35;14.27;;;10.48;;
57989;SDS011;58373;51.824;5.564;2022-07-19T06:18:01;16.10;;;10.20;;
57989;SDS011;58373;51.824;5.564;2022-07-19T06:20:26;12.35;;;9.85;;
57989;SDS011;58373;51.824;5.564;2022-07-19T06:22:51;12.25;;;9.60;;
57989;SDS011;58373;51.824;5.564;2022-07-19T06:25:16;13.63;;;9.68;;
57989;SDS011;58373;51.824;5.564;2022-07-19T06:27:42;11.02;;;8.60;;
57989;SDS011;58373;51.824;5.564;2022-07-19T06:30:07;12.48;;;8.90;;
57989;SDS011;58373;51.824;5.564;2022-07-19T06:32:33;13.10;;;8.27;;
57989;SDS011;58373;51.824;5.564;2022-07-19T06:34:58;11.98;;;8.60;;
57989;SDS011;58373;51.824;5.564;2022-07-19T06:37:23;12.80;;;8.73;;
57989;SDS011;58373;51.824;5.564;2022-07-19T06:39:49;12.48;;;8.13;;
57989;SDS011;58373;51.824;5.564;2022-07-19T06:42:14;10.68;;;8.80;;
57989;SDS011;58373;51.824;5.564;2022-07-19T06:44:40;13.68;;;9.45;;
57989;SDS011;58373;51.824;5.564;2022-07-19T06:47:05;13.63;;;10.00;;
57989;SDS011;58373;51.824;5.564;2022-07-19T06:49:30;13.75;;;9.52;;
57989;SDS011;58373;51.824;5.564;2022-07-19T06:51:55;11.98;;;8.55;;
57989;SDS011;58373;51.824;5.564;2022-07-19T06:54:21;15.32;;;9.15;;
57989;SDS011;58373;51.824;5.564;2022-07-19T06:56:46;13.40;;;8.88;;
57989;SDS011;58373;51.824;5.564;2022-07-19T06:59:11;14.50;;;9.35;;
57989;SDS011;58373;51.824;5.564;2022-07-19T07:01:37;13.23;;;8.23;;
57989;SDS011;58373;51.824;5.564;2022-07-19T07:04:02;14.48;;;7.80;;
57989;SDS011;58373;51.824;5.564;2022-07-19T07:06:28;12.27;;;7.70;;
57989;SDS011;58373;51.824;5.564;2022-07-19T07:08:53;12.73;;;8.18;;
57989;SDS011;58373;51.824;5.564;2022-07-19T07:11:18;12.70;;;7.57;;
57989;SDS011;58373;51.824;5.564;2022-07-19T07:13:44;12.25;;;7.68;;
57989;SDS011;58373;51.824;5.564;2022-07-19T07:16:09;14.15;;;7.90;;
57989;SDS011;58373;51.824;5.564;2022-07-19T07:18:34;12.38;;;7.45;;
57989;SDS011;58373;51.824;5.564;2022-07-19T07:21:00;13.63;;;7.43;;
57989;SDS011;58373;51.824;5.564;2022-07-19T07:23:25;12.23;;;7.20;;
57989;SDS011;58373;51.824;5.564;2022-07-19T07:25:50;11.75;;;7.65;;
57989;SDS011;58373;51.824;5.564;2022-07-19T07:28:18;11.65;;;7.47;;
57989;SDS011;58373;51.824;5.564;2022-07-19T07:30:44;9.85;;;6.75;;
57989;SDS011;58373;51.824;5.564;2022-07-19T07:33:09;12.35;;;7.53;;
57989;SDS011;58373;51.824;5.564;2022-07-19T07:35:35;11.75;;;7.18;;
57989;SDS011;58373;51.824;5.564;2022-07-19T07:38:00;11.50;;;7.03;;
57989;SDS011;58373;51.824;5.564;2022-07-19T07:40:25;11.45;;;6.93;;
57989;SDS011;58373;51.824;5.564;2022-07-19T07:42:51;11.73;;;7.50;;
57989;SDS011;58373;51.824;5.564;2022-07-19T07:45:16;13.15;;;6.60;;
57989;SDS011;58373;51.824;5.564;2022-07-19T07:47:42;9.95;;;6.65;;
57989;SDS011;58373;51.824;5.564;2022-07-19T07:50:07;10.18;;;6.32;;
57989;SDS011;58373;51.824;5.564;2022-07-19T07:52:33;11.35;;;6.57;;
57989;SDS011;58373;51.824;5.564;2022-07-19T07:54:59;11.10;;;7.28;;
57989;SDS011;58373;51.824;5.564;2022-07-19T07:57:24;12.30;;;7.28;;
57989;SDS011;58373;51.824;5.564;2022-07-19T07:59:49;12.20;;;6.78;;
57989;SDS011;58373;51.824;5.564;2022-07-19T08:02:15;12.13;;;7.38;;
57989;SDS011;58373;51.824;5.564;2022-07-19T08:04:40;11.40;;;6.47;;
57989;SDS011;58373;51.824;5.564;2022-07-19T08:07:05;11.77;;;6.85;;
57989;SDS011;58373;51.824;5.564;2022-07-19T08:09:31;11.55;;;6.65;;
57989;SDS011;58373;51.824;5.564;2022-07-19T08:11:57;11.02;;;6.40;;
57989;SDS011;58373;51.824;5.564;2022-07-19T08:14:22;9.82;;;6.35;;
57989;SDS011;58373;51.824;5.564;2022-07-19T08:16:48;12.27;;;6.88;;
57989;SDS011;58373;51.824;5.564;2022-07-19T08:19:13;9.95;;;6.78;;
57989;SDS011;58373;51.824;5.564;2022-07-19T08:21:38;13.23;;;6.55;;
57989;SDS011;58373;51.824;5.564;2022-07-19T08:24:04;11.60;;;6.88;;
57989;SDS011;58373;51.824;5.564;2022-07-19T08:26:30;12.65;;;6.80;;
57989;SDS011;58373;51.824;5.564;2022-07-19T08:28:56;9.73;;;5.88;;
57989;SDS011;58373;51.824;5.564;2022-07-19T08:31:21;10.15;;;6.63;;
57989;SDS011;58373;51.824;5.564;2022-07-19T08:33:47;8.93;;;6.20;;
57989;SDS011;58373;51.824;5.564;2022-07-19T08:36:13;10.45;;;5.90;;
57989;SDS011;58373;51.824;5.564;2022-07-19T08:41:06;8.52;;;5.30;;
57989;SDS011;58373;51.824;5.564;2022-07-19T08:43:32;9.20;;;5.15;;
57989;SDS011;58373;51.824;5.564;2022-07-19T08:46:02;9.65;;;4.60;;
57989;SDS011;58373;51.824;5.564;2022-07-19T08:48:35;7.80;;;4.18;;
57989;SDS011;58373;51.824;5.564;2022-07-19T08:51:02;11.13;;;4.13;;
57989;SDS011;58373;51.824;5.564;2022-07-19T08:53:29;8.85;;;4.18;;
57989;SDS011;58373;51.824;5.564;2022-07-19T08:55:56;8.50;;;4.13;;
57989;SDS011;58373;51.824;5.564;2022-07-19T08:58:22;8.52;;;3.92;;
57989;SDS011;58373;51.824;5.564;2022-07-19T09:00:47;9.57;;;3.83;;
57989;SDS011;58373;51.824;5.564;2022-07-19T09:03:12;7.65;;;3.90;;
57989;SDS011;58373;51.824;5.564;2022-07-19T09:05:38;7.22;;;3.83;;
57989;SDS011;58373;51.824;5.564;2022-07-19T09:10:38;8.32;;;3.90;;
57989;SDS011;58373;51.824;5.564;2022-07-19T09:13:47;9.60;;;3.72;;
57989;SDS011;58373;51.824;5.564;2022-07-19T09:16:14;11.23;;;3.80;;
57989;SDS011;58373;51.824;5.564;2022-07-19T09:18:39;6.68;;;3.50;;
57989;SDS011;58373;51.824;5.564;2022-07-19T09:21:05;8.93;;;3.70;;
57989;SDS011;58373;51.824;5.564;2022-07-19T09:23:31;8.50;;;3.40;;
57989;SDS011;58373;51.824;5.564;2022-07-19T09:25:59;7.87;;;3.40;;
57989;SDS011;58373;51.824;5.564;2022-07-19T09:28:26;7.50;;;3.80;;
57989;SDS011;58373;51.824;5.564;2022-07-19T09:30:55;8.20;;;3.50;;
57989;SDS011;58373;51.824;5.564;2022-07-19T09:33:22;7.47;;;3.97;;
57989;SDS011;58373;51.824;5.564;2022-07-19T09:35:50;6.93;;;3.47;;
57989;SDS011;58373;51.824;5.564;2022-07-19T09:38:18;9.38;;;3.80;;
57989;SDS011;58373;51.824;5.564;2022-07-19T09:41:07;9.20;;;3.90;;
57989;SDS011;58373;51.824;5.564;2022-07-19T09:44:11;7.65;;;3.72;;
57989;SDS011;58373;51.824;5.564;2022-07-19T09:46:37;7.10;;;3.63;;
57989;SDS011;58373;51.824;5.564;2022-07-19T09:49:05;8.82;;;3.80;;
57989;SDS011;58373;51.824;5.564;2022-07-19T09:51:38;8.20;;;3.75;;
57989;SDS011;58373;51.824;5.564;2022-07-19T09:54:05;6.82;;;3.60;;
57989;SDS011;58373;51.824;5.564;2022-07-19T09:56:32;8.07;;;3.57;;
57989;SDS011;58373;51.824;5.564;2022-07-19T09:58:58;7.18;;;3.40;;
57989;SDS011;58373;51.824;5.564;2022-07-19T10:01:24;9.10;;;3.50;;
57989;SDS011;58373;51.824;5.564;2022-07-19T10:03:51;10.48;;;3.95;;
57989;SDS011;58373;51.824;5.564;2022-07-19T10:06:22;5.85;;;3.00;;
57989;SDS011;58373;51.824;5.564;2022-07-19T10:08:50;7.70;;;3.38;;
57989;SDS011;58373;51.824;5.564;2022-07-19T10:11:16;6.22;;;3.60;;
57989;SDS011;58373;51.824;5.564;2022-07-19T10:13:43;7.72;;;3.50;;
57989;SDS011;58373;51.824;5.564;2022-07-19T10:16:11;7.55;;;3.60;;
57989;SDS011;58373;51.824;5.564;2022-07-19T10:18:44;6.82;;;3.70;;
57989;SDS011;58373;51.824;5.564;2022-07-19T10:21:19;8.05;;;4.10;;
57989;SDS011;58373;51.824;5.564;2022-07-19T10:23:51;8.43;;;3.55;;
57989;SDS011;58373;51.824;5.564;2022-07-19T10:26:33;6.45;;;3.60;;
57989;SDS011;58373;51.824;5.564;2022-07-19T10:29:06;7.63;;;3.60;;
57989;SDS011;58373;51.824;5.564;2022-07-19T10:31:36;10.35;;;3.33;;
57989;SDS011;58373;51.824;5.564;2022-07-19T10:34:09;7.43;;;3.50;;
57989;SDS011;58373;51.824;5.564;2022-07-19T10:44:34;6.72;;;3.38;;
57989;SDS011;58373;51.824;5.564;2022-07-19T10:47:00;6.43;;;3.43;;
57989;SDS011;58373;51.824;5.564;2022-07-19T10:58:29;6.10;;;3.50;;
57989;SDS011;58373;51.824;5.564;2022-07-19T11:00:42;7.43;;;3.30;;
57989;SDS011;58373;51.824;5.564;2022-07-19T11:05:51;6.85;;;3.10;;
57989;SDS011;58373;51.824;5.564;2022-07-19T11:08:29;7.05;;;3.45;;
57989;SDS011;58373;51.824;5.564;2022-07-19T11:13:32;6.00;;;3.05;;
57989;SDS011;58373;51.824;5.564;2022-07-19T11:16:01;8.07;;;3.35;;
57989;SDS011;58373;51.824;5.564;2022-07-19T11:18:30;7.35;;;3.00;;
57989;SDS011;58373;51.824;5.564;2022-07-19T11:20:57;5.77;;;2.97;;
57989;SDS011;58373;51.824;5.564;2022-07-19T11:23:23;7.60;;;3.00;;
57989;SDS011;58373;51.824;5.564;2022-07-19T11:25:52;6.68;;;3.05;;
57989;SDS011;58373;51.824;5.564;2022-07-19T11:28:34;7.13;;;3.00;;
57989;SDS011;58373;51.824;5.564;2022-07-19T11:31:00;9.50;;;2.95;;
57989;SDS011;58373;51.824;5.564;2022-07-19T11:33:26;5.90;;;3.20;;
57989;SDS011;58373;51.824;5.564;2022-07-19T11:35:52;7.68;;;2.80;;
57989;SDS011;58373;51.824;5.564;2022-07-19T11:38:21;7.38;;;2.92;;
57989;SDS011;58373;51.824;5.564;2022-07-19T11:40:47;6.43;;;2.80;;
57989;SDS011;58373;51.824;5.564;2022-07-19T11:43:12;6.57;;;3.30;;
57989;SDS011;58373;51.824;5.564;2022-07-19T11:45:44;5.47;;;2.88;;
57989;SDS011;58373;51.824;5.564;2022-07-19T11:48:22;7.10;;;3.00;;
57989;SDS011;58373;51.824;5.564;2022-07-19T11:51:04;5.68;;;2.85;;
57989;SDS011;58373;51.824;5.564;2022-07-19T11:53:32;6.40;;;3.13;;
57989;SDS011;58373;51.824;5.564;2022-07-19T11:55:59;7.60;;;2.92;;
57989;SDS011;58373;51.824;5.564;2022-07-19T11:58:25;6.30;;;2.83;;
57989;SDS011;58373;51.824;5.564;2022-07-19T12:00:51;6.97;;;3.17;;
57989;SDS011;58373;51.824;5.564;2022-07-19T12:03:17;7.25;;;3.10;;
57989;SDS011;58373;51.824;5.564;2022-07-19T12:06:00;6.05;;;2.50;;
57989;SDS011;58373;51.824;5.564;2022-07-19T12:10:59;6.43;;;2.80;;
57989;SDS011;58373;51.824;5.564;2022-07-19T12:13:29;7.43;;;2.70;;
57989;SDS011;58373;51.824;5.564;2022-07-19T12:15:57;5.65;;;3.10;;
57989;SDS011;58373;51.824;5.564;2022-07-19T12:18:43;9.20;;;3.25;;
57989;SDS011;58373;51.824;5.564;2022-07-19T12:21:17;5.30;;;2.83;;
57989;SDS011;58373;51.824;5.564;2022-07-19T12:26:44;6.32;;;2.83;;
57989;SDS011;58373;51.824;5.564;2022-07-19T12:29:22;6.47;;;2.80;;
57989;SDS011;58373;51.824;5.564;2022-07-19T12:32:04;7.65;;;3.10;;
57989;SDS011;58373;51.824;5.564;2022-07-19T12:34:41;6.07;;;2.83;;
57989;SDS011;58373;51.824;5.564;2022-07-19T12:37:19;7.00;;;2.92;;
57989;SDS011;58373;51.824;5.564;2022-07-19T12:39:59;7.15;;;2.75;;
57989;SDS011;58373;51.824;5.564;2022-07-19T12:42:24;7.10;;;2.72;;
57989;SDS011;58373;51.824;5.564;2022-07-19T12:44:50;8.68;;;2.67;;
57989;SDS011;58373;51.824;5.564;2022-07-19T12:47:15;5.73;;;2.60;;
57989;SDS011;58373;51.824;5.564;2022-07-19T12:49:42;5.03;;;2.25;;
57989;SDS011;58373;51.824;5.564;2022-07-19T12:52:13;4.90;;;2.28;;
57989;SDS011;58373;51.824;5.564;2022-07-19T12:54:41;6.70;;;2.30;;
57989;SDS011;58373;51.824;5.564;2022-07-19T12:57:06;7.70;;;2.60;;
57989;SDS011;58373;51.824;5.564;2022-07-19T12:59:32;6.20;;;2.50;;
57989;SDS011;58373;51.824;5.564;2022-07-19T13:02:11;6.03;;;2.25;;
57989;SDS011;58373;51.824;5.564;2022-07-19T13:04:40;4.13;;;2.40;;
57989;SDS011;58373;51.824;5.564;2022-07-19T13:07:10;5.78;;;2.40;;
57989;SDS011;58373;51.824;5.564;2022-07-19T13:09:37;6.32;;;2.10;;
57989;SDS011;58373;51.824;5.564;2022-07-19T13:12:04;4.87;;;2.17;;
57989;SDS011;58373;51.824;5.564;2022-07-19T13:14:31;5.85;;;2.10;;
57989;SDS011;58373;51.824;5.564;2022-07-19T13:19:24;7.78;;;2.80;;
57989;SDS011;58373;51.824;5.564;2022-07-19T13:21:49;6.93;;;2.40;;
57989;SDS011;58373;51.824;5.564;2022-07-19T13:24:17;4.65;;;2.55;;
57989;SDS011;58373;51.824;5.564;2022-07-19T13:26:42;7.07;;;2.80;;
57989;SDS011;58373;51.824;5.564;2022-07-19T13:29:10;5.78;;;2.78;;
57989;SDS011;58373;51.824;5.564;2022-07-19T13:31:36;5.32;;;2.60;;
57989;SDS011;58373;51.824;5.564;2022-07-19T13:34:02;7.07;;;2.53;;
57989;SDS011;58373;51.824;5.564;2022-07-19T13:36:28;7.00;;;2.70;;
57989;SDS011;58373;51.824;5.564;2022-07-19T13:38:54;5.13;;;2.40;;
57989;SDS011;58373;51.824;5.564;2022-07-19T13:41:19;4.95;;;2.30;;
57989;SDS011;58373;51.824;5.564;2022-07-19T13:43:45;8.02;;;2.72;;
57989;SDS011;58373;51.824;5.564;2022-07-19T13:46:11;6.55;;;3.17;;
57989;SDS011;58373;51.824;5.564;2022-07-19T13:48:37;6.53;;;2.55;;
57989;SDS011;58373;51.824;5.564;2022-07-19T13:51:03;4.78;;;2.42;;
57989;SDS011;58373;51.824;5.564;2022-07-19T13:53:29;7.18;;;2.60;;
57989;SDS011;58373;51.824;5.564;2022-07-19T13:55:54;7.72;;;2.60;;
57989;SDS011;58373;51.824;5.564;2022-07-19T13:58:20;6.53;;;2.58;;
57989;SDS011;58373;51.824;5.564;2022-07-19T14:00:48;4.93;;;2.75;;
57989;SDS011;58373;51.824;5.564;2022-07-19T14:03:14;8.38;;;3.00;;
57989;SDS011;58373;51.824;5.564;2022-07-19T14:05:45;5.35;;;3.20;;
57989;SDS011;58373;51.824;5.564;2022-07-19T14:08:11;7.13;;;3.05;;
57989;SDS011;58373;51.824;5.564;2022-07-19T14:10:37;9.52;;;3.20;;
57989;SDS011;58373;51.824;5.564;2022-07-19T14:13:03;7.30;;;3.00;;
57989;SDS011;58373;51.824;5.564;2022-07-19T14:15:29;7.35;;;3.20;;
57989;SDS011;58373;51.824;5.564;2022-07-19T14:17:55;7.88;;;3.13;;
57989;SDS011;58373;51.824;5.564;2022-07-19T14:20:21;6.10;;;3.17;;
57989;SDS011;58373;51.824;5.564;2022-07-19T14:22:48;7.82;;;2.95;;
57989;SDS011;58373;51.824;5.564;2022-07-19T14:25:13;6.53;;;2.97;;
57989;SDS011;58373;51.824;5.564;2022-07-19T14:27:39;6.18;;;2.67;;
57989;SDS011;58373;51.824;5.564;2022-07-19T14:30:04;4.03;;;2.60;;
57989;SDS011;58373;51.824;5.564;2022-07-19T14:32:31;5.43;;;2.65;;
57989;SDS011;58373;51.824;5.564;2022-07-19T14:34:56;4.82;;;2.42;;
57989;SDS011;58373;51.824;5.564;2022-07-19T14:37:21;4.28;;;2.42;;
57989;SDS011;58373;51.824;5.564;2022-07-19T14:39:47;5.05;;;2.40;;
57989;SDS011;58373;51.824;5.564;2022-07-19T14:42:12;6.65;;;2.67;;
57989;SDS011;58373;51.824;5.564;2022-07-19T14:44:38;5.18;;;2.40;;
57989;SDS011;58373;51.824;5.564;2022-07-19T14:47:03;7.15;;;2.40;;
57989;SDS011;58373;51.824;5.564;2022-07-19T14:49:29;7.00;;;2.88;;
57989;SDS011;58373;51.824;5.564;2022-07-19T14:51:54;7.88;;;2.83;;
57989;SDS011;58373;51.824;5.564;2022-07-19T14:54:20;4.03;;;2.47;;
57989;SDS011;58373;51.824;5.564;2022-07-19T14:56:45;6.35;;;2.70;;
57989;SDS011;58373;51.824;5.564;2022-07-19T14:59:10;4.78;;;2.42;;
57989;SDS011;58373;51.824;5.564;2022-07-19T15:01:36;6.60;;;2.72;;
57989;SDS011;58373;51.824;5.564;2022-07-19T15:04:01;5.88;;;2.40;;
57989;SDS011;58373;51.824;5.564;2022-07-19T15:06:27;6.90;;;2.75;;
57989;SDS011;58373;51.824;5.564;2022-07-19T15:08:54;5.82;;;2.42;;
57989;SDS011;58373;51.824;5.564;2022-07-19T15:11:19;6.22;;;2.80;;
57989;SDS011;58373;51.824;5.564;2022-07-19T15:13:44;7.75;;;2.70;;
57989;SDS011;58373;51.824;5.564;2022-07-19T15:16:10;6.35;;;2.60;;
57989;SDS011;58373;51.824;5.564;2022-07-19T15:18:35;5.55;;;2.45;;